sensor_id;sensor_type;location;lat;lon;timestamp;P1;durP1;ratioP1;P2;durP2;ratioP2
11086;SDS011;5597;47.588;9.642;2022-12-07T00:01:44;16.90;;;12.93;;
11086;SDS011;5597;47.588;9.642;2022-12-07T00:04:11;16.13;;;12.63;;
11086;SDS011;5597;47.588;9.642;2022-12-07T00:06:39;15.47;;;12.07;;
11086;SDS011;5597;47.588;9.642;2022-12-07T00:09:07;15.00;;;11.37;;
11086;SDS011;5597;47.588;9.642;2022-12-07T00:11:36;15.03;;;12.40;;
11086;SDS011;5597;47.588;9.642;2022-12-07T00:14:03;15.33;;;12.07;;
11086;SDS011;5597;47.588;9.642;2022-12-07T00:16:32;14.63;;;11.80;;
11086;SDS011;5597;47.588;9.642;2022-12-07T00:18:58;16.23;;;12.47;;
11086;SDS011;5597;47.588;9.642;2022-12-07T00:21:28;15.97;;;12.43;;
11086;SDS011;5597;47.588;9.642;2022-12-07T00:23:56;15.70;;;12.60;;
11086;SDS011;5597;47.588;9.642;2022-12-07T00:26:25;15.40;;;12.77;;
11086;SDS011;5597;47.588;9.642;2022-12-07T00:28:53;14.40;;;11.93;;
11086;SDS011;5597;47.588;9.642;2022-12-07T00:31:22;15.03;;;11.90;;
11086;SDS011;5597;47.588;9.642;2022-12-07T00:33:49;13.63;;;10.83;;
11086;SDS011;5597;47.588;9.642;2022-12-07T00:36:16;14.93;;;11.27;;
11086;SDS011;5597;47.588;9.642;2022-12-07T00:38:44;13.97;;;10.93;;
11086;SDS011;5597;47.588;9.642;2022-12-07T00:43:39;13.43;;;10.67;;
11086;SDS011;5597;47.588;9.642;2022-12-07T00:46:05;13.37;;;10.73;;
11086;SDS011;5597;47.588;9.642;2022-12-07T00:48:31;14.67;;;11.40;;
11086;SDS011;5597;47.588;9.642;2022-12-07T00:50:57;13.60;;;10.60;;
11086;SDS011;5597;47.588;9.642;2022-12-07T00:53:23;13.47;;;10.13;;
11086;SDS011;5597;47.588;9.642;2022-12-07T00:55:49;15.77;;;11.20;;
11086;SDS011;5597;47.588;9.642;2022-12-07T00:58:14;12.50;;;10.17;;
11086;SDS011;5597;47.588;9.642;2022-12-07T01:00:41;12.77;;;10.53;;
11086;SDS011;5597;47.588;9.642;2022-12-07T01:03:08;12.17;;;9.97;;
11086;SDS011;5597;47.588;9.642;2022-12-07T01:05:35;11.57;;;9.60;;
11086;SDS011;5597;47.588;9.642;2022-12-07T01:08:02;11.50;;;9.70;;
11086;SDS011;5597;47.588;9.642;2022-12-07T01:10:28;12.50;;;9.80;;
11086;SDS011;5597;47.588;9.642;2022-12-07T01:12:55;11.80;;;9.30;;
11086;SDS011;5597;47.588;9.642;2022-12-07T01:15:21;13.07;;;9.53;;
11086;SDS011;5597;47.588;9.642;2022-12-07T01:17:47;11.47;;;9.43;;
11086;SDS011;5597;47.588;9.642;2022-12-07T01:20:13;13.43;;;9.93;;
11086;SDS011;5597;47.588;9.642;2022-12-07T01:22:41;13.20;;;10.57;;
11086;SDS011;5597;47.588;9.642;2022-12-07T01:25:08;12.83;;;10.10;;
11086;SDS011;5597;47.588;9.642;2022-12-07T01:27:35;12.07;;;9.63;;
11086;SDS011;5597;47.588;9.642;2022-12-07T01:30:02;11.13;;;9.27;;
11086;SDS011;5597;47.588;9.642;2022-12-07T01:32:29;12.90;;;9.53;;
11086;SDS011;5597;47.588;9.642;2022-12-07T01:34:55;11.83;;;9.10;;
11086;SDS011;5597;47.588;9.642;2022-12-07T01:37:21;11.77;;;9.50;;
11086;SDS011;5597;47.588;9.642;2022-12-07T01:39:50;11.17;;;8.60;;
11086;SDS011;5597;47.588;9.642;2022-12-07T01:42:16;10.83;;;8.93;;
11086;SDS011;5597;47.588;9.642;2022-12-07T01:47:50;10.60;;;9.03;;
11086;SDS011;5597;47.588;9.642;2022-12-07T01:50:18;11.90;;;9.87;;
11086;SDS011;5597;47.588;9.642;2022-12-07T01:52:46;11.47;;;9.77;;
11086;SDS011;5597;47.588;9.642;2022-12-07T01:55:14;13.30;;;9.87;;
11086;SDS011;5597;47.588;9.642;2022-12-07T01:57:41;12.70;;;10.23;;
11086;SDS011;5597;47.588;9.642;2022-12-07T02:00:12;11.07;;;9.00;;
11086;SDS011;5597;47.588;9.642;2022-12-07T02:02:48;11.87;;;9.77;;
11086;SDS011;5597;47.588;9.642;2022-12-07T02:05:44;12.23;;;10.00;;
11086;SDS011;5597;47.588;9.642;2022-12-07T02:08:11;13.93;;;10.80;;
11086;SDS011;5597;47.588;9.642;2022-12-07T02:10:37;13.03;;;10.37;;
11086;SDS011;5597;47.588;9.642;2022-12-07T02:13:11;13.03;;;9.80;;
11086;SDS011;5597;47.588;9.642;2022-12-07T02:18:47;12.07;;;9.67;;
11086;SDS011;5597;47.588;9.642;2022-12-07T02:27:10;13.97;;;10.20;;
11086;SDS011;5597;47.588;9.642;2022-12-07T02:29:58;12.83;;;9.90;;
11086;SDS011;5597;47.588;9.642;2022-12-07T02:40:54;11.00;;;9.00;;
11086;SDS011;5597;47.588;9.642;2022-12-07T02:43:28;12.27;;;8.83;;
11086;SDS011;5597;47.588;9.642;2022-12-07T02:46:04;11.07;;;9.17;;
11086;SDS011;5597;47.588;9.642;2022-12-07T02:48:34;12.03;;;9.47;;
11086;SDS011;5597;47.588;9.642;2022-12-07T02:51:04;10.77;;;9.00;;
11086;SDS011;5597;47.588;9.642;2022-12-07T03:01:52;11.50;;;9.70;;
11086;SDS011;5597;47.588;9.642;2022-12-07T03:10:35;11.17;;;8.90;;
11086;SDS011;5597;47.588;9.642;2022-12-07T03:13:13;11.73;;;9.30;;
11086;SDS011;5597;47.588;9.642;2022-12-07T03:15:57;10.70;;;8.60;;
11086;SDS011;5597;47.588;9.642;2022-12-07T03:19:22;12.67;;;8.67;;
11086;SDS011;5597;47.588;9.642;2022-12-07T03:24:27;11.17;;;8.60;;
11086;SDS011;5597;47.588;9.642;2022-12-07T03:27:01;10.23;;;8.63;;
11086;SDS011;5597;47.588;9.642;2022-12-07T03:29:32;11.70;;;9.10;;
11086;SDS011;5597;47.588;9.642;2022-12-07T03:32:03;11.93;;;8.87;;
11086;SDS011;5597;47.588;9.642;2022-12-07T03:34:57;11.63;;;9.07;;
11086;SDS011;5597;47.588;9.642;2022-12-07T03:38:00;10.80;;;8.40;;
11086;SDS011;5597;47.588;9.642;2022-12-07T03:43:02;12.17;;;9.23;;
11086;SDS011;5597;47.588;9.642;2022-12-07T03:45:31;11.17;;;8.57;;
11086;SDS011;5597;47.588;9.642;2022-12-07T03:50:32;9.87;;;8.20;;
11086;SDS011;5597;47.588;9.642;2022-12-07T03:53:15;10.37;;;8.43;;
11086;SDS011;5597;47.588;9.642;2022-12-07T03:55:45;11.27;;;8.67;;
11086;SDS011;5597;47.588;9.642;2022-12-07T03:58:15;11.90;;;8.60;;
11086;SDS011;5597;47.588;9.642;2022-12-07T04:00:43;11.67;;;9.00;;
11086;SDS011;5597;47.588;9.642;2022-12-07T04:03:09;14.83;;;9.87;;
11086;SDS011;5597;47.588;9.642;2022-12-07T04:05:35;13.80;;;10.27;;
11086;SDS011;5597;47.588;9.642;2022-12-07T04:08:02;11.70;;;8.83;;
11086;SDS011;5597;47.588;9.642;2022-12-07T04:10:27;11.87;;;8.77;;
11086;SDS011;5597;47.588;9.642;2022-12-07T04:12:53;9.67;;;8.10;;
11086;SDS011;5597;47.588;9.642;2022-12-07T04:15:19;10.43;;;8.17;;
11086;SDS011;5597;47.588;9.642;2022-12-07T04:17:45;10.47;;;8.17;;
11086;SDS011;5597;47.588;9.642;2022-12-07T04:20:10;10.23;;;8.30;;
11086;SDS011;5597;47.588;9.642;2022-12-07T04:22:37;10.77;;;8.47;;
11086;SDS011;5597;47.588;9.642;2022-12-07T04:25:02;10.00;;;8.13;;
11086;SDS011;5597;47.588;9.642;2022-12-07T04:27:28;9.60;;;7.37;;
11086;SDS011;5597;47.588;9.642;2022-12-07T04:29:54;11.77;;;9.17;;
11086;SDS011;5597;47.588;9.642;2022-12-07T04:32:20;12.47;;;8.63;;
11086;SDS011;5597;47.588;9.642;2022-12-07T04:34:46;9.83;;;7.67;;
11086;SDS011;5597;47.588;9.642;2022-12-07T04:37:12;13.03;;;9.37;;
11086;SDS011;5597;47.588;9.642;2022-12-07T04:39:38;11.47;;;9.13;;
11086;SDS011;5597;47.588;9.642;2022-12-07T04:42:03;15.17;;;10.37;;
11086;SDS011;5597;47.588;9.642;2022-12-07T04:44:29;13.00;;;9.93;;
11086;SDS011;5597;47.588;9.642;2022-12-07T04:46:55;12.63;;;9.93;;
11086;SDS011;5597;47.588;9.642;2022-12-07T04:49:22;12.63;;;9.33;;
11086;SDS011;5597;47.588;9.642;2022-12-07T04:51:48;12.30;;;9.37;;
11086;SDS011;5597;47.588;9.642;2022-12-07T04:54:14;11.47;;;8.53;;
11086;SDS011;5597;47.588;9.642;2022-12-07T04:56:40;10.50;;;8.53;;
11086;SDS011;5597;47.588;9.642;2022-12-07T04:59:06;12.70;;;9.47;;
11086;SDS011;5597;47.588;9.642;2022-12-07T05:01:33;13.30;;;9.67;;
11086;SDS011;5597;47.588;9.642;2022-12-07T05:03:59;13.93;;;10.13;;
11086;SDS011;5597;47.588;9.642;2022-12-07T05:06:24;12.00;;;9.30;;
11086;SDS011;5597;47.588;9.642;2022-12-07T05:08:50;13.90;;;10.73;;
11086;SDS011;5597;47.588;9.642;2022-12-07T05:11:16;13.40;;;10.53;;
11086;SDS011;5597;47.588;9.642;2022-12-07T05:14:01;13.97;;;10.40;;
11086;SDS011;5597;47.588;9.642;2022-12-07T05:16:28;12.30;;;9.67;;
11086;SDS011;5597;47.588;9.642;2022-12-07T05:18:54;11.83;;;9.00;;
11086;SDS011;5597;47.588;9.642;2022-12-07T05:21:19;11.97;;;9.73;;
11086;SDS011;5597;47.588;9.642;2022-12-07T05:23:45;12.67;;;9.70;;
11086;SDS011;5597;47.588;9.642;2022-12-07T05:26:10;12.10;;;9.47;;
11086;SDS011;5597;47.588;9.642;2022-12-07T05:28:36;14.83;;;10.73;;
11086;SDS011;5597;47.588;9.642;2022-12-07T05:31:02;13.50;;;11.07;;
11086;SDS011;5597;47.588;9.642;2022-12-07T05:33:28;13.03;;;10.53;;
11086;SDS011;5597;47.588;9.642;2022-12-07T05:35:53;11.30;;;9.50;;
11086;SDS011;5597;47.588;9.642;2022-12-07T05:38:19;12.50;;;10.00;;
11086;SDS011;5597;47.588;9.642;2022-12-07T05:40:44;11.90;;;9.87;;
11086;SDS011;5597;47.588;9.642;2022-12-07T05:43:10;11.13;;;9.23;;
11086;SDS011;5597;47.588;9.642;2022-12-07T05:45:35;11.40;;;9.07;;
11086;SDS011;5597;47.588;9.642;2022-12-07T05:48:01;12.03;;;9.17;;
11086;SDS011;5597;47.588;9.642;2022-12-07T05:50:27;12.80;;;9.20;;
11086;SDS011;5597;47.588;9.642;2022-12-07T05:52:53;13.03;;;10.07;;
11086;SDS011;5597;47.588;9.642;2022-12-07T05:55:19;13.63;;;10.57;;
11086;SDS011;5597;47.588;9.642;2022-12-07T05:57:45;12.43;;;10.47;;
11086;SDS011;5597;47.588;9.642;2022-12-07T06:00:30;13.53;;;10.30;;
11086;SDS011;5597;47.588;9.642;2022-12-07T06:02:57;11.63;;;10.10;;
11086;SDS011;5597;47.588;9.642;2022-12-07T06:05:22;14.80;;;11.60;;
11086;SDS011;5597;47.588;9.642;2022-12-07T06:07:48;14.13;;;10.70;;
11086;SDS011;5597;47.588;9.642;2022-12-07T06:10:14;12.17;;;10.27;;
11086;SDS011;5597;47.588;9.642;2022-12-07T06:12:39;12.37;;;10.37;;
11086;SDS011;5597;47.588;9.642;2022-12-07T06:15:07;13.87;;;10.50;;
11086;SDS011;5597;47.588;9.642;2022-12-07T06:17:34;13.60;;;10.50;;
11086;SDS011;5597;47.588;9.642;2022-12-07T06:20:00;12.33;;;9.80;;
11086;SDS011;5597;47.588;9.642;2022-12-07T06:22:26;13.10;;;10.57;;
11086;SDS011;5597;47.588;9.642;2022-12-07T06:24:51;12.63;;;10.30;;
11086;SDS011;5597;47.588;9.642;2022-12-07T06:27:17;13.23;;;10.30;;
11086;SDS011;5597;47.588;9.642;2022-12-07T06:29:43;12.90;;;10.60;;
11086;SDS011;5597;47.588;9.642;2022-12-07T06:32:08;13.67;;;10.53;;
11086;SDS011;5597;47.588;9.642;2022-12-07T06:34:34;15.00;;;12.10;;
11086;SDS011;5597;47.588;9.642;2022-12-07T06:37:00;15.87;;;11.57;;
11086;SDS011;5597;47.588;9.642;2022-12-07T06:39:26;15.13;;;12.23;;
11086;SDS011;5597;47.588;9.642;2022-12-07T06:41:53;15.93;;;12.90;;
11086;SDS011;5597;47.588;9.642;2022-12-07T06:44:19;14.10;;;11.30;;
11086;SDS011;5597;47.588;9.642;2022-12-07T06:46:45;15.67;;;12.20;;
11086;SDS011;5597;47.588;9.642;2022-12-07T06:49:11;16.10;;;11.27;;
11086;SDS011;5597;47.588;9.642;2022-12-07T06:51:37;13.70;;;11.50;;
11086;SDS011;5597;47.588;9.642;2022-12-07T06:54:06;14.43;;;11.83;;
11086;SDS011;5597;47.588;9.642;2022-12-07T06:56:32;16.33;;;12.47;;
11086;SDS011;5597;47.588;9.642;2022-12-07T06:58:58;14.47;;;11.80;;
11086;SDS011;5597;47.588;9.642;2022-12-07T07:01:24;16.03;;;12.77;;
11086;SDS011;5597;47.588;9.642;2022-12-07T07:03:49;14.27;;;10.60;;
11086;SDS011;5597;47.588;9.642;2022-12-07T07:06:15;15.30;;;11.83;;
11086;SDS011;5597;47.588;9.642;2022-12-07T07:08:43;14.30;;;11.43;;
11086;SDS011;5597;47.588;9.642;2022-12-07T07:11:09;14.40;;;11.17;;
11086;SDS011;5597;47.588;9.642;2022-12-07T07:13:34;15.60;;;12.40;;
11086;SDS011;5597;47.588;9.642;2022-12-07T07:16:00;14.87;;;12.07;;
11086;SDS011;5597;47.588;9.642;2022-12-07T07:18:26;15.17;;;11.00;;
11086;SDS011;5597;47.588;9.642;2022-12-07T07:20:52;16.63;;;12.50;;
11086;SDS011;5597;47.588;9.642;2022-12-07T07:23:19;16.20;;;12.57;;
11086;SDS011;5597;47.588;9.642;2022-12-07T07:25:45;19.13;;;14.50;;
11086;SDS011;5597;47.588;9.642;2022-12-07T07:28:11;18.73;;;14.23;;
11086;SDS011;5597;47.588;9.642;2022-12-07T07:30:36;19.43;;;14.30;;
11086;SDS011;5597;47.588;9.642;2022-12-07T07:33:03;18.77;;;14.57;;
11086;SDS011;5597;47.588;9.642;2022-12-07T07:35:30;20.77;;;15.23;;
11086;SDS011;5597;47.588;9.642;2022-12-07T07:37:57;19.40;;;14.23;;
11086;SDS011;5597;47.588;9.642;2022-12-07T07:40:23;21.37;;;16.17;;
11086;SDS011;5597;47.588;9.642;2022-12-07T07:42:49;20.30;;;15.20;;
11086;SDS011;5597;47.588;9.642;2022-12-07T07:45:16;20.03;;;14.67;;
11086;SDS011;5597;47.588;9.642;2022-12-07T07:47:42;22.60;;;16.13;;
11086;SDS011;5597;47.588;9.642;2022-12-07T07:50:08;23.77;;;17.23;;
11086;SDS011;5597;47.588;9.642;2022-12-07T07:52:34;18.00;;;14.47;;
11086;SDS011;5597;47.588;9.642;2022-12-07T07:54:59;21.23;;;15.83;;
11086;SDS011;5597;47.588;9.642;2022-12-07T07:57:25;25.80;;;18.00;;
11086;SDS011;5597;47.588;9.642;2022-12-07T07:59:52;20.90;;;15.37;;
11086;SDS011;5597;47.588;9.642;2022-12-07T08:02:18;26.30;;;18.83;;
11086;SDS011;5597;47.588;9.642;2022-12-07T08:04:45;24.23;;;17.70;;
11086;SDS011;5597;47.588;9.642;2022-12-07T08:07:11;24.83;;;17.73;;
11086;SDS011;5597;47.588;9.642;2022-12-07T08:09:37;22.10;;;16.57;;
11086;SDS011;5597;47.588;9.642;2022-12-07T08:12:03;19.70;;;15.20;;
11086;SDS011;5597;47.588;9.642;2022-12-07T08:14:29;22.33;;;16.30;;
11086;SDS011;5597;47.588;9.642;2022-12-07T08:16:55;22.93;;;17.10;;
11086;SDS011;5597;47.588;9.642;2022-12-07T08:19:21;23.47;;;16.47;;
11086;SDS011;5597;47.588;9.642;2022-12-07T08:21:46;20.70;;;15.40;;
11086;SDS011;5597;47.588;9.642;2022-12-07T08:24:12;21.03;;;15.03;;
11086;SDS011;5597;47.588;9.642;2022-12-07T08:26:39;19.10;;;14.07;;
11086;SDS011;5597;47.588;9.642;2022-12-07T08:29:04;21.93;;;15.87;;
11086;SDS011;5597;47.588;9.642;2022-12-07T08:31:30;19.83;;;15.20;;
11086;SDS011;5597;47.588;9.642;2022-12-07T08:33:56;22.80;;;16.97;;
11086;SDS011;5597;47.588;9.642;2022-12-07T08:36:22;22.27;;;16.40;;
11086;SDS011;5597;47.588;9.642;2022-12-07T08:38:48;22.80;;;16.17;;
11086;SDS011;5597;47.588;9.642;2022-12-07T08:41:14;21.80;;;16.13;;
11086;SDS011;5597;47.588;9.642;2022-12-07T08:43:40;22.90;;;16.40;;
11086;SDS011;5597;47.588;9.642;2022-12-07T08:46:13;22.07;;;16.60;;
11086;SDS011;5597;47.588;9.642;2022-12-07T08:48:49;23.50;;;16.83;;
11086;SDS011;5597;47.588;9.642;2022-12-07T08:51:21;20.03;;;15.33;;
11086;SDS011;5597;47.588;9.642;2022-12-07T08:53:48;22.77;;;16.57;;
11086;SDS011;5597;47.588;9.642;2022-12-07T08:56:15;22.70;;;15.93;;
11086;SDS011;5597;47.588;9.642;2022-12-07T08:58:41;22.80;;;15.93;;
11086;SDS011;5597;47.588;9.642;2022-12-07T09:01:08;24.13;;;17.40;;
11086;SDS011;5597;47.588;9.642;2022-12-07T09:03:33;23.77;;;16.40;;
11086;SDS011;5597;47.588;9.642;2022-12-07T09:05:59;20.77;;;15.07;;
11086;SDS011;5597;47.588;9.642;2022-12-07T09:08:30;23.27;;;17.20;;
11086;SDS011;5597;47.588;9.642;2022-12-07T09:10:59;23.13;;;16.50;;
11086;SDS011;5597;47.588;9.642;2022-12-07T09:13:25;24.63;;;17.33;;
11086;SDS011;5597;47.588;9.642;2022-12-07T09:15:50;20.83;;;16.20;;
11086;SDS011;5597;47.588;9.642;2022-12-07T09:18:16;19.20;;;15.13;;
11086;SDS011;5597;47.588;9.642;2022-12-07T09:20:42;20.53;;;15.23;;
11086;SDS011;5597;47.588;9.642;2022-12-07T09:23:07;21.63;;;15.73;;
11086;SDS011;5597;47.588;9.642;2022-12-07T09:25:33;21.73;;;15.60;;
11086;SDS011;5597;47.588;9.642;2022-12-07T09:27:59;23.87;;;16.97;;
11086;SDS011;5597;47.588;9.642;2022-12-07T09:30:26;21.57;;;15.40;;
11086;SDS011;5597;47.588;9.642;2022-12-07T09:32:53;20.00;;;14.53;;
11086;SDS011;5597;47.588;9.642;2022-12-07T09:35:19;19.17;;;14.13;;
11086;SDS011;5597;47.588;9.642;2022-12-07T09:37:45;21.47;;;15.63;;
11086;SDS011;5597;47.588;9.642;2022-12-07T09:40:11;19.10;;;14.30;;
11086;SDS011;5597;47.588;9.642;2022-12-07T09:42:39;20.43;;;15.63;;
11086;SDS011;5597;47.588;9.642;2022-12-07T09:45:19;18.33;;;14.20;;
11086;SDS011;5597;47.588;9.642;2022-12-07T09:47:46;21.17;;;14.17;;
11086;SDS011;5597;47.588;9.642;2022-12-07T09:50:16;19.93;;;14.80;;
11086;SDS011;5597;47.588;9.642;2022-12-07T09:52:53;18.50;;;13.90;;
11086;SDS011;5597;47.588;9.642;2022-12-07T09:55:27;19.87;;;13.73;;
11086;SDS011;5597;47.588;9.642;2022-12-07T09:57:54;19.00;;;14.67;;
11086;SDS011;5597;47.588;9.642;2022-12-07T10:00:21;18.30;;;13.33;;
11086;SDS011;5597;47.588;9.642;2022-12-07T10:03:01;18.37;;;13.27;;
11086;SDS011;5597;47.588;9.642;2022-12-07T10:05:28;15.17;;;11.50;;
11086;SDS011;5597;47.588;9.642;2022-12-07T10:07:59;16.97;;;12.60;;
11086;SDS011;5597;47.588;9.642;2022-12-07T10:10:26;17.53;;;13.60;;
11086;SDS011;5597;47.588;9.642;2022-12-07T10:15:40;21.03;;;14.00;;
11086;SDS011;5597;47.588;9.642;2022-12-07T10:18:47;20.10;;;13.13;;
11086;SDS011;5597;47.588;9.642;2022-12-07T10:21:22;18.40;;;13.03;;
11086;SDS011;5597;47.588;9.642;2022-12-07T10:24:00;19.00;;;13.83;;
11086;SDS011;5597;47.588;9.642;2022-12-07T10:26:34;17.63;;;12.53;;
11086;SDS011;5597;47.588;9.642;2022-12-07T10:29:02;16.23;;;12.80;;
11086;SDS011;5597;47.588;9.642;2022-12-07T10:31:40;15.00;;;11.17;;
11086;SDS011;5597;47.588;9.642;2022-12-07T10:34:15;15.53;;;11.40;;
11086;SDS011;5597;47.588;9.642;2022-12-07T10:36:50;15.73;;;11.73;;
11086;SDS011;5597;47.588;9.642;2022-12-07T10:39:23;14.07;;;10.47;;
11086;SDS011;5597;47.588;9.642;2022-12-07T10:41:58;14.10;;;10.93;;
11086;SDS011;5597;47.588;9.642;2022-12-07T10:44:27;14.07;;;10.97;;
11086;SDS011;5597;47.588;9.642;2022-12-07T10:49:48;13.57;;;10.87;;
11086;SDS011;5597;47.588;9.642;2022-12-07T10:57:47;14.70;;;10.70;;
11086;SDS011;5597;47.588;9.642;2022-12-07T11:00:45;14.00;;;10.90;;
11086;SDS011;5597;47.588;9.642;2022-12-07T11:03:55;14.90;;;11.00;;
11086;SDS011;5597;47.588;9.642;2022-12-07T11:06:57;15.23;;;10.40;;
11086;SDS011;5597;47.588;9.642;2022-12-07T11:09:47;14.53;;;10.80;;
11086;SDS011;5597;47.588;9.642;2022-12-07T11:14:55;15.57;;;11.13;;
11086;SDS011;5597;47.588;9.642;2022-12-07T11:23:25;16.30;;;11.37;;
11086;SDS011;5597;47.588;9.642;2022-12-07T11:37:20;17.73;;;11.97;;
11086;SDS011;5597;47.588;9.642;2022-12-07T11:39:51;18.70;;;13.70;;
11086;SDS011;5597;47.588;9.642;2022-12-07T11:42:24;16.47;;;11.83;;
11086;SDS011;5597;47.588;9.642;2022-12-07T11:44:53;17.13;;;12.97;;
11086;SDS011;5597;47.588;9.642;2022-12-07T12:03:44;16.50;;;11.97;;
11086;SDS011;5597;47.588;9.642;2022-12-07T12:06:11;17.67;;;12.33;;
11086;SDS011;5597;47.588;9.642;2022-12-07T12:08:42;16.53;;;11.70;;
11086;SDS011;5597;47.588;9.642;2022-12-07T12:14:26;15.57;;;11.57;;
11086;SDS011;5597;47.588;9.642;2022-12-07T12:20:19;18.40;;;11.83;;
11086;SDS011;5597;47.588;9.642;2022-12-07T12:25:41;15.57;;;11.03;;
11086;SDS011;5597;47.588;9.642;2022-12-07T12:33:52;14.93;;;10.80;;
11086;SDS011;5597;47.588;9.642;2022-12-07T12:38:49;16.27;;;11.50;;
11086;SDS011;5597;47.588;9.642;2022-12-07T12:44:01;14.70;;;10.73;;
11086;SDS011;5597;47.588;9.642;2022-12-07T12:51:57;17.00;;;11.80;;
11086;SDS011;5597;47.588;9.642;2022-12-07T12:54:24;17.93;;;12.70;;
11086;SDS011;5597;47.588;9.642;2022-12-07T13:15:40;14.63;;;10.67;;
11086;SDS011;5597;47.588;9.642;2022-12-07T13:21:39;14.87;;;11.07;;
11086;SDS011;5597;47.588;9.642;2022-12-07T13:23:59;16.73;;;12.13;;
11086;SDS011;5597;47.588;9.642;2022-12-07T13:29:15;16.53;;;11.23;;
11086;SDS011;5597;47.588;9.642;2022-12-07T13:31:44;15.83;;;11.27;;
11086;SDS011;5597;47.588;9.642;2022-12-07T13:36:57;14.03;;;10.47;;
11086;SDS011;5597;47.588;9.642;2022-12-07T13:39:25;16.63;;;12.00;;
11086;SDS011;5597;47.588;9.642;2022-12-07T13:41:57;18.30;;;12.40;;
11086;SDS011;5597;47.588;9.642;2022-12-07T13:44:25;13.73;;;10.10;;
11086;SDS011;5597;47.588;9.642;2022-12-07T13:47:06;13.50;;;10.17;;
11086;SDS011;5597;47.588;9.642;2022-12-07T13:49:38;15.53;;;11.47;;
11086;SDS011;5597;47.588;9.642;2022-12-07T13:52:13;14.97;;;11.33;;
11086;SDS011;5597;47.588;9.642;2022-12-07T13:57:47;17.17;;;11.50;;
11086;SDS011;5597;47.588;9.642;2022-12-07T14:00:25;16.47;;;10.83;;
11086;SDS011;5597;47.588;9.642;2022-12-07T14:02:56;16.27;;;11.40;;
11086;SDS011;5597;47.588;9.642;2022-12-07T14:05:38;16.00;;;10.87;;
11086;SDS011;5597;47.588;9.642;2022-12-07T14:08:05;15.00;;;10.93;;
11086;SDS011;5597;47.588;9.642;2022-12-07T14:10:35;13.67;;;10.10;;
11086;SDS011;5597;47.588;9.642;2022-12-07T14:13:18;14.53;;;10.73;;
11086;SDS011;5597;47.588;9.642;2022-12-07T14:15:49;15.03;;;11.40;;
11086;SDS011;5597;47.588;9.642;2022-12-07T14:18:26;15.57;;;10.87;;
11086;SDS011;5597;47.588;9.642;2022-12-07T14:21:04;16.30;;;11.73;;
11086;SDS011;5597;47.588;9.642;2022-12-07T14:23:36;16.93;;;12.43;;
11086;SDS011;5597;47.588;9.642;2022-12-07T14:26:07;14.90;;;11.60;;
11086;SDS011;5597;47.588;9.642;2022-12-07T14:29:18;18.53;;;12.67;;
11086;SDS011;5597;47.588;9.642;2022-12-07T14:31:52;16.07;;;11.67;;
11086;SDS011;5597;47.588;9.642;2022-12-07T14:34:20;18.37;;;12.50;;
11086;SDS011;5597;47.588;9.642;2022-12-07T14:36:46;15.97;;;11.67;;
11086;SDS011;5597;47.588;9.642;2022-12-07T14:39:12;17.33;;;12.07;;
11086;SDS011;5597;47.588;9.642;2022-12-07T14:41:38;16.87;;;11.97;;
11086;SDS011;5597;47.588;9.642;2022-12-07T14:44:15;18.20;;;12.30;;
11086;SDS011;5597;47.588;9.642;2022-12-07T14:46:42;16.43;;;11.50;;
11086;SDS011;5597;47.588;9.642;2022-12-07T14:49:07;16.47;;;12.27;;
11086;SDS011;5597;47.588;9.642;2022-12-07T14:51:33;16.40;;;11.47;;
11086;SDS011;5597;47.588;9.642;2022-12-07T14:54:03;19.47;;;12.80;;
11086;SDS011;5597;47.588;9.642;2022-12-07T14:56:30;16.80;;;12.03;;
11086;SDS011;5597;47.588;9.642;2022-12-07T14:58:55;16.33;;;11.63;;
11086;SDS011;5597;47.588;9.642;2022-12-07T15:01:21;17.03;;;11.90;;
11086;SDS011;5597;47.588;9.642;2022-12-07T15:03:47;16.80;;;11.47;;
11086;SDS011;5597;47.588;9.642;2022-12-07T15:06:13;16.47;;;10.37;;
11086;SDS011;5597;47.588;9.642;2022-12-07T15:08:41;15.50;;;11.40;;
11086;SDS011;5597;47.588;9.642;2022-12-07T15:11:12;14.87;;;10.87;;
11086;SDS011;5597;47.588;9.642;2022-12-07T15:13:39;16.30;;;12.07;;
11086;SDS011;5597;47.588;9.642;2022-12-07T15:16:23;16.90;;;11.80;;
11086;SDS011;5597;47.588;9.642;2022-12-07T15:18:49;17.73;;;12.30;;
11086;SDS011;5597;47.588;9.642;2022-12-07T15:21:14;18.23;;;11.97;;
11086;SDS011;5597;47.588;9.642;2022-12-07T15:23:41;18.37;;;11.73;;
11086;SDS011;5597;47.588;9.642;2022-12-07T15:26:07;18.70;;;13.53;;
11086;SDS011;5597;47.588;9.642;2022-12-07T15:28:33;18.27;;;13.40;;
11086;SDS011;5597;47.588;9.642;2022-12-07T15:30:58;18.90;;;13.53;;
11086;SDS011;5597;47.588;9.642;2022-12-07T15:33:24;20.20;;;13.03;;
11086;SDS011;5597;47.588;9.642;2022-12-07T15:35:50;18.53;;;12.63;;
11086;SDS011;5597;47.588;9.642;2022-12-07T15:38:15;18.13;;;12.43;;
11086;SDS011;5597;47.588;9.642;2022-12-07T15:40:41;20.20;;;13.30;;
11086;SDS011;5597;47.588;9.642;2022-12-07T15:43:10;18.70;;;13.83;;
11086;SDS011;5597;47.588;9.642;2022-12-07T15:45:56;19.20;;;13.10;;
11086;SDS011;5597;47.588;9.642;2022-12-07T15:48:21;21.00;;;14.43;;
11086;SDS011;5597;47.588;9.642;2022-12-07T15:50:47;21.03;;;14.47;;
11086;SDS011;5597;47.588;9.642;2022-12-07T15:53:13;26.20;;;16.13;;
11086;SDS011;5597;47.588;9.642;2022-12-07T15:55:39;23.80;;;15.53;;
11086;SDS011;5597;47.588;9.642;2022-12-07T15:58:05;23.50;;;14.87;;
11086;SDS011;5597;47.588;9.642;2022-12-07T16:00:31;21.73;;;14.47;;
11086;SDS011;5597;47.588;9.642;2022-12-07T16:02:57;23.43;;;15.87;;
11086;SDS011;5597;47.588;9.642;2022-12-07T16:05:23;22.87;;;15.10;;
11086;SDS011;5597;47.588;9.642;2022-12-07T16:07:49;23.37;;;15.10;;
11086;SDS011;5597;47.588;9.642;2022-12-07T16:10:16;20.13;;;13.90;;
11086;SDS011;5597;47.588;9.642;2022-12-07T16:12:41;23.17;;;14.13;;
11086;SDS011;5597;47.588;9.642;2022-12-07T16:15:07;21.23;;;14.63;;
11086;SDS011;5597;47.588;9.642;2022-12-07T16:17:33;22.43;;;15.07;;
11086;SDS011;5597;47.588;9.642;2022-12-07T16:19:59;23.07;;;15.30;;
11086;SDS011;5597;47.588;9.642;2022-12-07T16:22:24;22.13;;;14.20;;
11086;SDS011;5597;47.588;9.642;2022-12-07T16:24:50;21.73;;;14.47;;
11086;SDS011;5597;47.588;9.642;2022-12-07T16:27:16;24.23;;;14.77;;
11086;SDS011;5597;47.588;9.642;2022-12-07T16:29:41;24.10;;;15.23;;
11086;SDS011;5597;47.588;9.642;2022-12-07T16:32:07;24.90;;;15.60;;
11086;SDS011;5597;47.588;9.642;2022-12-07T16:34:33;21.63;;;14.40;;
11086;SDS011;5597;47.588;9.642;2022-12-07T16:36:58;21.30;;;13.53;;
11086;SDS011;5597;47.588;9.642;2022-12-07T16:39:24;21.40;;;13.80;;
11086;SDS011;5597;47.588;9.642;2022-12-07T16:41:50;21.17;;;13.73;;
11086;SDS011;5597;47.588;9.642;2022-12-07T16:44:15;20.00;;;13.90;;
11086;SDS011;5597;47.588;9.642;2022-12-07T16:46:41;19.40;;;13.17;;
11086;SDS011;5597;47.588;9.642;2022-12-07T16:49:10;18.90;;;13.33;;
11086;SDS011;5597;47.588;9.642;2022-12-07T16:51:38;17.30;;;12.50;;
11086;SDS011;5597;47.588;9.642;2022-12-07T16:54:04;19.60;;;13.23;;
11086;SDS011;5597;47.588;9.642;2022-12-07T16:56:30;21.57;;;14.50;;
11086;SDS011;5597;47.588;9.642;2022-12-07T16:58:57;22.13;;;14.33;;
11086;SDS011;5597;47.588;9.642;2022-12-07T17:01:23;20.60;;;13.70;;
11086;SDS011;5597;47.588;9.642;2022-12-07T17:03:49;21.97;;;13.83;;
11086;SDS011;5597;47.588;9.642;2022-12-07T17:06:19;21.80;;;14.53;;
11086;SDS011;5597;47.588;9.642;2022-12-07T17:08:50;19.57;;;13.03;;
11086;SDS011;5597;47.588;9.642;2022-12-07T17:11:18;18.10;;;12.57;;
11086;SDS011;5597;47.588;9.642;2022-12-07T17:13:45;19.93;;;13.70;;
11086;SDS011;5597;47.588;9.642;2022-12-07T17:16:30;22.57;;;14.20;;
11086;SDS011;5597;47.588;9.642;2022-12-07T17:18:56;21.07;;;14.20;;